Meteo Giornale » Osservazioni meteo Canada » Kelowna
ore: 11:20 - Osservazioni Meteo Kelowna
Lat. 49° 58' N Lon. 119° 23' W Alt. 430 metri s.l.m.
19 °C
Sereno
Temp. 24 Ore
8 °C
20 °C
Nord
7.4 Km/h
Dew point 11 °C
Umidità 59 %
Visibilità 14 Km
Il sole sorge alle ore 06:11
Il sole tramonta alle ore 19:43
| Data e Ora | Cielo e Fenomeni | T °C | DP °C | Um. % | Pres. hPa | Vis. km | Vento km/h | |
|---|---|---|---|---|---|---|---|---|
| Oggi h: 11:20 | Sereno | 19 | 11 | 59 | 1015 | 14 | N 7.4 | |
| Oggi h: 11:10 | Sereno | 19 | 12 | 63 | 1015 | 14 | N 7.4 | |
| Oggi h: 11:09 | Sereno | 18 | 11 | 63 | 1015 | 14 | N 7.4 | |
| Oggi h: 11:00 | Sereno | 18 | 12 | 67 | 1015 | 13 | N 5.5 | |
| Oggi h: 10:59 | Sereno | 18 | 11 | 63 | 1015 | 13 | N 7.4 | |
| Oggi h: 10:54 | Sereno | 18 | 11 | 63 | 1015 | 14 | N 3.7 | |
| Oggi h: 10:43 | Sereno | 18 | 11 | 63 | 1015 | 11 | N 3.7 | |
| Oggi h: 10:09 | Sereno | 17 | 11 | 67 | 1016 | 14 | N/NO 7.4 | |
| Oggi h: 10:00 | Foschia | 17 | 11 | 67 | 1016 | 6 | NE 7.4 | |
| Oggi h: 09:58 | Foschia | 17 | 11 | 67 | 1016 | 8 | N/NE 7.4 | |
| Oggi h: 09:55 | Foschia | 17 | 11 | 67 | 1016 | 10 | N/NE 7.4 | |
| Oggi h: 09:49 | Foschia | 16 | 11 | 72 | 1016 | 8 | N 3.7 | |
| Oggi h: 09:46 | Sereno | 16 | 11 | 72 | 1016 | 13 | N 3.7 | |
| Oggi h: 09:24 | Poco Nuvoloso | 16 | 11 | 72 | 1016 | 14 | N 0 | |
| Oggi h: 09:14 | Foschia | 15 | 10 | 72 | 1016 | 6 | N 0 | |
| Oggi h: 09:13 | Nuvoloso | 15 | 10 | 72 | 1016 | 14 | N 0 | |
| Oggi h: 09:00 | Molto Nuvoloso | 15 | 10 | 72 | 1016 | 14 | N 5.5 | |
| Oggi h: 08:00 | Coperto | 12 | 10 | 87 | 1016 | 14 | N 0 | |
| Oggi h: 07:26 | Molto Nuvoloso | 10 | 9 | 93 | 1016 | 14 | N 3.7 | |
| Oggi h: 07:07 | Nuvoloso | 10 | 9 | 93 | 1016 | 14 | N 3.7 | |
| Oggi h: 07:00 | Molto Nuvoloso | 9 | 8 | 93 | 1016 | 14 | N 0 | |
| Oggi h: 06:27 | Molto Nuvoloso | 8 | 8 | 100 | 1016 | 14 | N 0 | |
| Oggi h: 06:00 | Sereno | 9 | 8 | 93 | 1016 | 14 | E/NE 7.4 | |
| Oggi h: 05:00 | Sereno | 9 | 8 | 93 | 1016 | 14 | N 0 | |
| Oggi h: 04:00 | Sereno | 9 | 8 | 93 | 1016 | 14 | N 3.7 | |
| Oggi h: 03:00 | Sereno | 9 | 8 | 93 | 1016 | 14 | N 0 | |
| Oggi h: 02:00 | Sereno | 11 | 9 | 87 | 1016 | 14 | N 3.7 | |
| Oggi h: 01:00 | Nuvoloso | 13 | 10 | 81 | 1016 | 14 | N 3.7 | |
| Oggi h: 00:00 | Coperto | 12 | 10 | 87 | 1017 | 14 | N 5.5 | |
| Ieri h: 23:00 | Molto Nuvoloso | 13 | 10 | 81 | 1016 | 14 | N 0 | |
| Ieri h: 22:00 | Nuvoloso | 15 | 11 | 76 | 1016 | 14 | E/NE 7.4 | |
| Ieri h: 21:00 | Coperto | 16 | 11 | 72 | 1016 | 14 | N 5.5 | |
| Ieri h: 20:00 | Coperto | 18 | 11 | 63 | 1015 | 14 | N 0 | |
| Ieri h: 19:00 | Coperto | 19 | 10 | 55 | 1015 | 14 | E/SE 7.4 | |
| Ieri h: 18:00 | Coperto | 19 | 10 | 55 | 1016 | 14 | SE 9.3 | |
| Ieri h: 17:47 | Coperto | 19 | 10 | 55 | 1016 | 14 | SE 11.1 | |
| Ieri h: 17:11 | Pioggia | 20 | 9 | 49 | 1015 | 14 | S/SE 9.3 | |
| Ieri h: 17:00 | Coperto | 20 | 9 | 49 | 1015 | 14 | S/SE 14.8 | |
| Ieri h: 16:00 | Molto Nuvoloso | 20 | 9 | 49 | 1016 | 14 | S 9.3 | |
| Ieri h: 15:00 | Coperto | 19 | 8 | 48 | 1016 | 14 | S 11.1 | |
| Ieri h: 14:00 | Molto Nuvoloso | 19 | 8 | 48 | 1016 | 14 | S/SO 13 | |
| Ieri h: 13:07 | Molto Nuvoloso | 19 | 10 | 55 | 1016 | 14 | SO 11.1 | |
| Ieri h: 13:00 | Pioggia | 19 | 9 | 52 | 1016 | 14 | SO 16.7 | |



